createdAt,value
2017-10-02T00:01:28.354Z,15.00
2017-10-02T00:03:55.948Z,14.90
2017-10-02T00:06:22.800Z,14.80
2017-10-02T00:08:50.379Z,14.80
2017-10-02T00:11:17.969Z,14.80
2017-10-02T00:13:44.820Z,14.80
2017-10-02T00:16:12.402Z,14.90
2017-10-02T00:18:39.249Z,14.90
2017-10-02T00:21:06.884Z,14.80
2017-10-02T00:23:34.127Z,14.80
2017-10-02T00:26:01.208Z,14.80
2017-10-02T00:28:28.076Z,14.80
2017-10-02T00:30:54.963Z,14.80
2017-10-02T00:33:22.662Z,14.70
2017-10-02T00:35:49.521Z,14.60
2017-10-02T00:38:16.331Z,14.70
2017-10-02T00:40:43.189Z,14.60
2017-10-02T00:43:10.056Z,14.70
2017-10-02T00:45:36.899Z,14.70
2017-10-02T00:48:03.841Z,14.70
2017-10-02T00:50:31.497Z,14.70
2017-10-02T00:52:58.468Z,14.60
2017-10-02T00:55:25.399Z,14.70
2017-10-02T00:57:52.278Z,14.80
2017-10-02T01:00:19.709Z,14.70
2017-10-02T01:02:47.553Z,14.70
2017-10-02T01:05:14.492Z,14.70
2017-10-02T01:07:41.339Z,14.70
2017-10-02T01:10:08.239Z,14.60
2017-10-02T01:12:35.111Z,14.70
2017-10-02T01:15:02.791Z,14.80
2017-10-02T01:17:30.449Z,14.80
2017-10-02T01:19:57.304Z,14.70
2017-10-02T01:22:24.246Z,14.70
2017-10-02T01:24:51.127Z,14.80
2017-10-02T01:27:17.985Z,14.70
2017-10-02T01:29:44.853Z,14.70
2017-10-02T01:32:11.679Z,14.80
2017-10-02T01:34:38.501Z,14.70
2017-10-02T01:37:05.309Z,14.70
2017-10-02T01:39:32.158Z,14.70
2017-10-02T01:41:59.028Z,14.60
2017-10-02T01:44:25.883Z,14.60
2017-10-02T01:46:52.734Z,14.60
2017-10-02T01:49:19.591Z,14.70
2017-10-02T01:51:46.438Z,14.70
2017-10-02T01:54:13.992Z,14.60
2017-10-02T01:56:40.838Z,14.70
2017-10-02T01:59:07.678Z,14.70
2017-10-02T02:01:34.512Z,14.70
2017-10-02T02:04:01.341Z,14.70
2017-10-02T02:06:28.182Z,14.60
2017-10-02T02:08:55.051Z,14.50
2017-10-02T02:11:21.891Z,14.50
2017-10-02T02:13:48.751Z,14.30
2017-10-02T02:16:15.596Z,14.50
2017-10-02T02:18:42.439Z,14.30
2017-10-02T02:21:09.310Z,14.20
2017-10-02T02:23:36.149Z,14.30
2017-10-02T02:26:03.774Z,14.10
2017-10-02T02:28:30.586Z,14.10
2017-10-02T02:30:58.197Z,14.20
2017-10-02T02:33:25.049Z,14.20
2017-10-02T02:35:51.929Z,14.20
2017-10-02T02:38:18.840Z,14.10
2017-10-02T02:40:46.480Z,14.10
2017-10-02T02:43:13.331Z,14.10
2017-10-02T02:45:40.172Z,14.00
2017-10-02T02:48:07.032Z,13.90
2017-10-02T02:50:33.912Z,14.00
2017-10-02T02:53:00.740Z,14.00
2017-10-02T02:55:28.363Z,14.00
2017-10-02T02:57:55.173Z,14.00
2017-10-02T03:00:22.764Z,14.00
2017-10-02T03:02:49.584Z,14.00
2017-10-02T03:05:16.409Z,14.00
2017-10-02T03:07:43.247Z,14.00
2017-10-02T03:10:10.915Z,13.90
2017-10-02T03:12:38.531Z,14.00
2017-10-02T03:15:05.390Z,14.00
2017-10-02T03:17:32.232Z,14.00
2017-10-02T03:19:59.096Z,14.00
2017-10-02T03:22:25.961Z,13.90
2017-10-02T03:24:52.859Z,14.00
2017-10-02T03:27:19.739Z,13.90
2017-10-02T03:29:46.647Z,14.10
2017-10-02T03:32:13.495Z,14.10
2017-10-02T03:34:41.149Z,14.00
2017-10-02T03:37:08.010Z,14.00
2017-10-02T03:39:34.827Z,14.10
2017-10-02T03:42:01.706Z,14.10
2017-10-02T03:44:28.539Z,14.10
2017-10-02T03:46:55.367Z,14.10
2017-10-02T03:49:22.927Z,14.00
2017-10-02T03:51:49.774Z,14.00
2017-10-02T03:54:16.646Z,14.10
2017-10-02T03:56:43.468Z,14.10
2017-10-02T03:59:10.345Z,14.10
2017-10-02T04:01:37.196Z,14.10
2017-10-02T04:04:04.061Z,14.10
2017-10-02T04:06:30.899Z,14.10
2017-10-02T04:08:57.704Z,14.00
2017-10-02T04:11:24.602Z,14.10
2017-10-02T04:13:52.196Z,14.10
2017-10-02T04:16:19.079Z,14.10
2017-10-02T04:18:45.915Z,14.10
2017-10-02T04:21:12.740Z,14.10
2017-10-02T04:23:39.601Z,14.20
2017-10-02T04:26:06.431Z,14.10
2017-10-02T04:28:33.277Z,14.10
2017-10-02T04:31:00.155Z,14.00
2017-10-02T04:33:26.980Z,14.20
2017-10-02T04:35:54.519Z,14.10
2017-10-02T04:38:21.362Z,14.00
2017-10-02T04:40:48.188Z,14.10
2017-10-02T04:43:15.007Z,14.20
2017-10-02T04:45:41.857Z,14.10
2017-10-02T04:48:08.725Z,14.10
2017-10-02T04:50:35.563Z,14.20
2017-10-02T04:53:02.410Z,14.10
2017-10-02T04:55:29.269Z,14.10
2017-10-02T04:57:56.122Z,14.10
2017-10-02T05:00:23.024Z,14.10
2017-10-02T05:02:49.858Z,14.10
2017-10-02T05:05:16.697Z,14.20
2017-10-02T05:07:43.540Z,14.20
2017-10-02T05:10:11.117Z,14.10
2017-10-02T05:12:38.081Z,14.10
2017-10-02T05:15:05.662Z,14.20
2017-10-02T05:17:33.275Z,14.20
2017-10-02T05:20:00.106Z,14.10
2017-10-02T05:22:26.923Z,14.10
2017-10-02T05:24:53.771Z,14.10
2017-10-02T05:27:20.702Z,14.10
2017-10-02T05:29:47.558Z,14.10
2017-10-02T05:32:14.371Z,14.20
2017-10-02T05:34:41.263Z,14.20
2017-10-02T05:37:08.864Z,14.30
2017-10-02T05:39:35.684Z,14.30
2017-10-02T05:42:02.512Z,14.30
2017-10-02T05:44:29.353Z,14.20
2017-10-02T05:46:56.203Z,14.30
2017-10-02T05:49:23.120Z,14.40
2017-10-02T05:51:49.962Z,14.40
2017-10-02T05:54:16.787Z,14.40
2017-10-02T05:56:43.678Z,14.40
2017-10-02T05:59:10.524Z,14.40
2017-10-02T06:01:37.459Z,14.40
2017-10-02T06:04:05.101Z,14.40
2017-10-02T06:06:31.962Z,14.40
2017-10-02T06:08:58.811Z,14.40
2017-10-02T06:11:25.720Z,14.40
2017-10-02T06:13:53.285Z,14.40
2017-10-02T06:16:20.162Z,14.40
2017-10-02T06:18:47.752Z,14.50
2017-10-02T06:21:14.636Z,14.40
2017-10-02T06:23:41.521Z,14.40
2017-10-02T06:26:08.360Z,14.50
2017-10-02T06:28:35.334Z,14.50
2017-10-02T06:31:02.170Z,14.60
2017-10-02T06:33:29.051Z,14.60
2017-10-02T06:35:55.892Z,14.60
2017-10-02T06:38:22.723Z,14.60
2017-10-02T06:40:49.565Z,14.60
2017-10-02T06:43:16.419Z,14.60
2017-10-02T06:45:43.306Z,14.60
2017-10-02T06:48:10.180Z,14.60
2017-10-02T06:50:37.103Z,14.70
2017-10-02T06:53:03.938Z,14.60
2017-10-02T06:55:30.761Z,14.70
2017-10-02T06:57:58.364Z,14.80
2017-10-02T07:00:25.177Z,14.70
2017-10-02T07:02:52.058Z,14.70
2017-10-02T07:05:19.617Z,14.80
2017-10-02T07:07:46.535Z,14.70
2017-10-02T07:10:13.372Z,14.80
2017-10-02T07:12:41.048Z,14.80
2017-10-02T07:15:07.872Z,14.70
2017-10-02T07:17:34.764Z,14.70
2017-10-02T07:20:02.408Z,14.70
2017-10-02T07:22:29.258Z,14.70
2017-10-02T07:24:56.140Z,14.70
2017-10-02T07:27:23.002Z,14.80
2017-10-02T07:29:49.912Z,14.80
2017-10-02T07:32:16.761Z,14.80
2017-10-02T07:34:43.671Z,14.80
2017-10-02T07:37:10.539Z,14.80
2017-10-02T07:39:37.365Z,14.80
2017-10-02T07:42:04.196Z,14.80
2017-10-02T07:44:31.761Z,14.90
2017-10-02T07:46:58.636Z,14.90
2017-10-02T07:49:26.191Z,14.90
2017-10-02T07:51:53.052Z,14.90
2017-10-02T07:54:19.977Z,14.90
2017-10-02T07:56:46.869Z,14.90
2017-10-02T07:59:13.737Z,14.90
2017-10-02T08:01:40.575Z,15.00
2017-10-02T08:04:07.406Z,15.00
2017-10-02T08:06:34.221Z,15.00
2017-10-02T08:09:01.042Z,15.10
2017-10-02T08:11:27.893Z,15.10
2017-10-02T08:13:54.754Z,15.10
2017-10-02T08:16:21.623Z,15.10
2017-10-02T08:18:48.520Z,15.10
2017-10-02T08:21:15.369Z,15.20
2017-10-02T08:23:42.256Z,15.10
2017-10-02T08:26:09.130Z,15.20
2017-10-02T08:28:35.978Z,15.20
2017-10-02T08:31:02.861Z,15.20
2017-10-02T08:33:30.499Z,15.20
2017-10-02T08:35:57.470Z,15.20
2017-10-02T08:38:24.387Z,15.20
2017-10-02T08:40:51.978Z,15.30
2017-10-02T08:43:18.865Z,15.20
2017-10-02T08:45:45.735Z,15.30
2017-10-02T08:48:12.577Z,15.30
2017-10-02T08:50:39.463Z,15.30
2017-10-02T08:53:06.330Z,15.30
2017-10-02T08:55:33.141Z,15.30
2017-10-02T08:57:59.996Z,15.30
2017-10-02T09:00:26.882Z,15.30
2017-10-02T09:02:53.746Z,15.40
2017-10-02T09:05:20.570Z,15.40
2017-10-02T09:07:48.201Z,15.50
2017-10-02T09:10:15.068Z,15.50
2017-10-02T09:12:41.875Z,15.50
2017-10-02T09:15:08.821Z,15.50
2017-10-02T09:17:36.472Z,15.60
2017-10-02T09:20:03.404Z,15.50
2017-10-02T09:22:30.264Z,15.60
2017-10-02T09:24:57.188Z,15.60
2017-10-02T09:27:24.815Z,15.60
2017-10-02T09:29:51.676Z,15.60
2017-10-02T09:32:18.540Z,15.60
2017-10-02T09:34:45.481Z,15.70
2017-10-02T09:37:12.336Z,15.70
2017-10-02T09:39:39.230Z,15.70
2017-10-02T09:42:06.078Z,15.70
2017-10-02T09:44:32.975Z,15.70
2017-10-02T09:46:59.791Z,15.70
2017-10-02T09:49:26.650Z,15.80
2017-10-02T09:51:53.470Z,15.80
2017-10-02T09:54:20.302Z,15.90
2017-10-02T09:56:47.132Z,16.00
2017-10-02T09:59:14.002Z,16.10
2017-10-02T10:01:40.928Z,16.10
2017-10-02T10:04:08.530Z,16.20
2017-10-02T10:06:35.355Z,16.20
2017-10-02T10:09:02.228Z,16.20
2017-10-02T10:11:29.109Z,16.30
2017-10-02T10:13:55.964Z,16.30
2017-10-02T10:16:23.557Z,16.30
2017-10-02T10:18:50.494Z,16.30
2017-10-02T10:21:18.065Z,16.40
2017-10-02T10:23:44.908Z,16.30
2017-10-02T10:26:11.737Z,16.30
2017-10-02T10:28:38.580Z,16.40
2017-10-02T10:31:05.557Z,16.40
2017-10-02T10:33:32.446Z,16.40
2017-10-02T10:35:59.260Z,16.40
2017-10-02T10:38:26.117Z,16.40
2017-10-02T10:40:53.034Z,16.50
2017-10-02T10:43:19.868Z,16.40
2017-10-02T10:45:46.714Z,16.40
2017-10-02T10:48:13.548Z,16.40
2017-10-02T10:50:41.154Z,16.60
2017-10-02T10:53:08.042Z,16.50
2017-10-02T10:55:34.886Z,16.60
2017-10-02T10:58:01.749Z,16.60
2017-10-02T11:00:28.593Z,16.70
2017-10-02T11:02:55.485Z,16.70
2017-10-02T11:05:22.390Z,16.80
2017-10-02T11:07:49.251Z,16.90
2017-10-02T11:10:16.108Z,16.90
2017-10-02T11:12:42.960Z,16.90
2017-10-02T11:15:09.897Z,17.00
2017-10-02T11:17:36.753Z,17.10
2017-10-02T11:20:03.628Z,17.10
2017-10-02T11:22:30.468Z,17.20
2017-10-02T11:24:57.308Z,17.10
2017-10-02T11:27:24.175Z,17.10
2017-10-02T11:29:51.019Z,17.10
2017-10-02T11:32:18.610Z,17.10
2017-10-02T11:34:45.451Z,17.00
2017-10-02T11:37:13.023Z,17.00
2017-10-02T11:39:39.913Z,16.90
2017-10-02T11:42:06.807Z,16.90
2017-10-02T11:44:33.661Z,16.90
2017-10-02T11:47:00.569Z,17.10
2017-10-02T11:49:27.463Z,17.30
2017-10-02T11:51:54.416Z,17.60
2017-10-02T11:54:21.991Z,18.00
2017-10-02T11:56:49.700Z,18.10
2017-10-02T11:59:17.360Z,18.30
2017-10-02T12:01:44.286Z,18.30
2017-10-02T12:04:11.197Z,18.40
2017-10-02T12:06:38.030Z,18.50
2017-10-02T12:09:05.645Z,18.70
2017-10-02T12:11:32.496Z,18.70
2017-10-02T12:13:59.416Z,18.80
2017-10-02T12:16:26.267Z,18.90
2017-10-02T12:18:53.101Z,18.90
2017-10-02T12:21:19.986Z,19.00
2017-10-02T12:23:46.966Z,19.10
2017-10-02T12:26:13.802Z,19.30
2017-10-02T12:28:40.649Z,19.40
2017-10-02T12:31:07.673Z,19.30
2017-10-02T12:33:37.378Z,19.20
2017-10-02T12:36:04.300Z,19.20
2017-10-02T12:38:31.359Z,19.20
2017-10-02T12:40:58.180Z,19.00
2017-10-02T12:43:25.766Z,19.00
2017-10-02T12:45:53.397Z,18.90
2017-10-02T12:48:20.257Z,18.90
2017-10-02T12:50:47.133Z,18.60
2017-10-02T12:53:13.994Z,18.60
2017-10-02T12:55:40.867Z,18.60
2017-10-02T12:58:07.800Z,18.70
2017-10-02T13:00:35.527Z,18.30
2017-10-02T13:03:02.364Z,18.30
2017-10-02T13:05:29.269Z,18.00
2017-10-02T13:07:56.188Z,18.00
2017-10-02T13:10:23.032Z,18.10
2017-10-02T13:12:49.929Z,18.30
2017-10-02T13:15:16.874Z,18.40
2017-10-02T13:17:43.774Z,18.80
2017-10-02T13:20:10.639Z,19.10
2017-10-02T13:22:38.245Z,19.30
2017-10-02T13:25:05.114Z,19.30
2017-10-02T13:27:31.975Z,19.10
2017-10-02T13:29:58.870Z,19.00
2017-10-02T13:32:25.724Z,19.20
2017-10-02T13:34:52.565Z,19.50
2017-10-02T13:37:19.402Z,19.70
2017-10-02T13:39:46.219Z,19.90
2017-10-02T13:42:13.067Z,20.00
2017-10-02T13:44:39.960Z,20.00
2017-10-02T13:47:06.839Z,20.10
2017-10-02T13:49:33.690Z,20.10
2017-10-02T13:52:01.283Z,19.80
2017-10-02T13:54:28.145Z,19.80
2017-10-02T13:56:54.980Z,19.60
2017-10-02T13:59:23.055Z,19.40
2017-10-02T14:01:49.869Z,19.30
2017-10-02T14:04:16.765Z,19.50
2017-10-02T14:06:43.642Z,19.70
2017-10-02T14:09:10.506Z,20.00
2017-10-02T14:11:37.443Z,19.80
2017-10-02T14:14:04.411Z,19.70
2017-10-02T14:16:32.155Z,19.70
2017-10-02T14:18:58.995Z,19.80
2017-10-02T14:21:26.606Z,20.10
2017-10-02T14:23:54.064Z,20.00
2017-10-02T14:26:20.879Z,20.00
2017-10-02T14:28:47.828Z,20.00
2017-10-02T14:31:14.671Z,20.20
2017-10-02T14:33:41.508Z,20.30
2017-10-02T14:36:08.373Z,20.30
2017-10-02T14:38:35.179Z,20.40
2017-10-02T14:41:02.028Z,20.20
2017-10-02T14:43:28.915Z,20.30
2017-10-02T14:45:55.734Z,20.40
2017-10-02T14:48:22.553Z,20.30
2017-10-02T14:50:50.162Z,20.20
2017-10-02T14:53:16.999Z,20.20
2017-10-02T14:55:44.611Z,20.30
2017-10-02T14:58:11.517Z,20.20
2017-10-02T15:00:38.352Z,20.10
2017-10-02T15:03:05.240Z,20.30
2017-10-02T15:05:32.062Z,20.20
2017-10-02T15:07:58.926Z,20.10
2017-10-02T15:10:25.776Z,19.90
2017-10-02T15:12:52.705Z,20.20
2017-10-02T15:15:20.920Z,19.80
2017-10-02T15:17:47.796Z,19.60
2017-10-02T15:20:14.625Z,19.60
2017-10-02T15:22:42.164Z,20.00
2017-10-02T15:25:09.019Z,20.00
2017-10-02T15:27:35.852Z,20.00
2017-10-02T15:30:02.759Z,20.00
2017-10-02T15:32:29.588Z,19.90
2017-10-02T15:34:56.420Z,19.80
2017-10-02T15:37:23.259Z,19.70
2017-10-02T15:39:52.798Z,19.60
2017-10-02T15:42:19.816Z,19.50
2017-10-02T15:44:46.667Z,19.60
2017-10-02T15:47:13.472Z,19.60
2017-10-02T15:49:41.017Z,19.40
2017-10-02T15:52:07.883Z,19.40
2017-10-02T15:54:34.815Z,19.20
2017-10-02T15:57:01.671Z,19.10
2017-10-02T15:59:28.531Z,19.10
2017-10-02T16:01:55.668Z,19.10
2017-10-02T16:04:22.843Z,18.90
2017-10-02T16:06:49.668Z,18.90
2017-10-02T16:09:16.503Z,18.90
2017-10-02T16:11:43.426Z,18.90
2017-10-02T16:14:11.015Z,18.60
2017-10-02T16:16:37.884Z,18.60
2017-10-02T16:19:04.931Z,18.50
2017-10-02T16:21:31.793Z,18.50
2017-10-02T16:23:59.491Z,18.30
2017-10-02T16:26:26.391Z,18.30
2017-10-02T16:28:53.236Z,18.30
2017-10-02T16:31:20.340Z,18.30
2017-10-02T16:33:47.508Z,18.40
2017-10-02T16:36:14.331Z,18.20
2017-10-02T16:38:41.225Z,18.30
2017-10-02T16:41:08.059Z,18.20
2017-10-02T16:43:34.919Z,18.20
2017-10-02T16:46:01.731Z,18.20
2017-10-02T16:48:28.569Z,18.10
2017-10-02T16:50:55.420Z,18.10
2017-10-02T16:53:22.219Z,18.10
2017-10-02T16:55:49.750Z,17.90
2017-10-02T16:58:16.566Z,17.90
2017-10-02T17:00:43.487Z,17.80
2017-10-02T17:03:10.314Z,17.80
2017-10-02T17:05:37.199Z,17.90
2017-10-02T17:08:04.022Z,17.80
2017-10-02T17:10:30.834Z,17.80
2017-10-02T17:12:57.683Z,17.60
2017-10-02T17:15:24.558Z,17.60
2017-10-02T17:17:51.413Z,17.70
2017-10-02T17:20:18.358Z,17.70
2017-10-02T17:22:45.207Z,17.60
2017-10-02T17:25:12.549Z,17.60
2017-10-02T17:27:40.159Z,17.40
2017-10-02T17:30:07.065Z,17.40
2017-10-02T17:32:35.116Z,17.50
2017-10-02T17:35:02.023Z,17.50
2017-10-02T17:37:28.859Z,17.50
2017-10-02T17:39:55.732Z,17.40
2017-10-02T17:42:23.069Z,17.40
2017-10-02T17:44:50.135Z,17.40
2017-10-02T17:47:17.009Z,17.40
2017-10-02T17:49:43.973Z,17.30
2017-10-02T17:52:11.098Z,17.40
2017-10-02T17:54:38.144Z,17.40
2017-10-02T17:57:05.209Z,17.30
2017-10-02T17:59:32.294Z,17.30
2017-10-02T18:01:59.380Z,17.30
2017-10-02T18:04:26.287Z,17.30
2017-10-02T18:06:54.115Z,17.20
2017-10-02T18:09:21.152Z,17.20
2017-10-02T18:11:48.136Z,17.30
2017-10-02T18:14:15.081Z,17.20
2017-10-02T18:16:42.009Z,17.10
2017-10-02T18:19:09.071Z,17.10
2017-10-02T18:21:36.446Z,17.00
2017-10-02T18:24:03.444Z,17.10
2017-10-02T18:26:30.478Z,17.00
2017-10-02T18:28:57.430Z,17.00
2017-10-02T18:31:24.508Z,17.00
2017-10-02T18:33:51.589Z,16.80
2017-10-02T18:36:18.643Z,17.00
2017-10-02T18:38:45.537Z,16.90
2017-10-02T18:41:13.265Z,17.00
2017-10-02T18:43:40.110Z,16.90
2017-10-02T18:46:08.216Z,16.70
2017-10-02T18:48:35.873Z,16.80
2017-10-02T18:51:04.592Z,16.80
2017-10-02T18:53:33.566Z,16.70
2017-10-02T18:56:01.924Z,16.70
2017-10-02T18:58:29.709Z,16.70
2017-10-02T19:00:56.883Z,16.70
2017-10-02T19:03:23.901Z,16.70
2017-10-02T19:05:51.623Z,16.60
2017-10-02T19:08:18.466Z,16.60
2017-10-02T19:10:45.637Z,16.70
2017-10-02T19:13:12.488Z,16.80
2017-10-02T19:15:39.808Z,16.60
2017-10-02T19:18:08.130Z,16.60
2017-10-02T19:20:35.261Z,16.60
2017-10-02T19:23:02.236Z,16.40
2017-10-02T19:25:29.200Z,16.70
2017-10-02T19:27:56.485Z,16.80
2017-10-02T19:30:25.944Z,16.50
2017-10-02T19:32:53.637Z,16.50
2017-10-02T19:35:21.763Z,16.20
2017-10-02T19:37:48.647Z,16.40
2017-10-02T19:40:15.929Z,16.40
2017-10-02T19:42:43.728Z,16.40
2017-10-02T19:45:10.811Z,16.40
2017-10-02T19:47:37.901Z,16.40
2017-10-02T19:50:05.804Z,16.40
2017-10-02T19:52:32.999Z,16.40
2017-10-02T19:55:00.899Z,16.40
2017-10-02T19:57:28.812Z,16.30
2017-10-02T19:59:55.846Z,16.20
2017-10-02T20:02:23.138Z,16.30
2017-10-02T20:04:50.174Z,16.20
2017-10-02T20:07:17.945Z,16.30
2017-10-02T20:09:45.736Z,16.20
2017-10-02T20:12:12.771Z,16.20
2017-10-02T20:14:39.700Z,16.20
2017-10-02T20:17:06.567Z,16.20
2017-10-02T20:19:34.823Z,16.00
2017-10-02T20:22:02.692Z,15.80
2017-10-02T20:24:31.575Z,16.00
2017-10-02T20:26:59.774Z,15.90
2017-10-02T20:29:27.351Z,15.90
2017-10-02T20:31:55.313Z,15.70
2017-10-02T20:34:23.630Z,15.80
2017-10-02T20:36:52.017Z,15.60
2017-10-02T20:39:19.032Z,15.60
2017-10-02T20:41:47.018Z,15.70
2017-10-02T20:44:14.944Z,15.70
2017-10-02T20:46:43.226Z,15.90
2017-10-02T20:49:10.307Z,15.50
2017-10-02T20:51:37.145Z,15.50
2017-10-02T20:54:04.374Z,15.60
2017-10-02T20:56:32.282Z,15.50
2017-10-02T20:58:59.272Z,15.40
2017-10-02T21:01:26.948Z,15.40
2017-10-02T21:03:54.212Z,15.30
2017-10-02T21:06:21.191Z,15.40
2017-10-02T21:08:48.099Z,15.20
2017-10-02T21:11:15.742Z,15.20
2017-10-02T21:13:42.620Z,15.20
2017-10-02T21:16:09.512Z,15.00
2017-10-02T21:18:36.371Z,15.00
2017-10-02T21:21:03.230Z,15.20
2017-10-02T21:23:30.072Z,15.00
2017-10-02T21:25:56.913Z,14.80
2017-10-02T21:28:23.765Z,14.80
2017-10-02T21:30:50.655Z,15.00
2017-10-02T21:33:17.526Z,14.60
2017-10-02T21:35:44.419Z,14.90
2017-10-02T21:38:12.067Z,15.00
2017-10-02T21:40:38.911Z,15.00
2017-10-02T21:43:05.840Z,14.80
2017-10-02T21:45:34.177Z,15.00
2017-10-02T21:48:01.076Z,14.80
2017-10-02T21:50:28.666Z,15.00
2017-10-02T21:52:55.552Z,15.00
2017-10-02T21:55:22.451Z,15.00
2017-10-02T21:57:49.299Z,15.10
2017-10-02T22:00:16.216Z,15.20
2017-10-02T22:02:43.034Z,15.10
2017-10-02T22:05:09.910Z,15.00
2017-10-02T22:07:36.750Z,15.10
2017-10-02T22:10:03.591Z,15.00
2017-10-02T22:12:30.432Z,14.50
2017-10-02T22:14:57.410Z,14.70
2017-10-02T22:17:24.269Z,14.70
2017-10-02T22:19:51.099Z,14.90
2017-10-02T22:22:18.750Z,14.90
2017-10-02T22:24:45.660Z,14.80
2017-10-02T22:27:12.562Z,14.60
2017-10-02T22:29:39.420Z,14.40
2017-10-02T22:32:06.291Z,14.30
2017-10-02T22:34:33.138Z,14.70
2017-10-02T22:36:59.986Z,14.40
2017-10-02T22:39:26.836Z,14.50
2017-10-02T22:41:53.758Z,14.50
2017-10-02T22:44:20.675Z,14.40
2017-10-02T22:46:47.542Z,14.40
2017-10-02T22:49:14.455Z,14.30
2017-10-02T22:51:42.074Z,14.40
2017-10-02T22:54:09.122Z,14.40
2017-10-02T22:56:35.950Z,14.50
2017-10-02T22:59:02.868Z,14.30
2017-10-02T23:01:29.762Z,14.10
2017-10-02T23:03:56.614Z,14.20
2017-10-02T23:06:23.527Z,14.40
2017-10-02T23:08:50.594Z,14.70
2017-10-02T23:11:17.410Z,14.50
2017-10-02T23:13:44.236Z,14.40
2017-10-02T23:16:11.903Z,14.20
2017-10-02T23:18:38.926Z,14.20
2017-10-02T23:21:06.854Z,14.30
2017-10-02T23:23:33.732Z,14.20
2017-10-02T23:26:00.600Z,14.00
2017-10-02T23:28:27.395Z,13.60
2017-10-02T23:30:54.266Z,14.20
2017-10-02T23:33:21.169Z,14.10
2017-10-02T23:35:48.046Z,14.20
2017-10-02T23:38:14.841Z,14.10
2017-10-02T23:40:41.631Z,14.40
2017-10-02T23:43:08.502Z,14.20
2017-10-02T23:45:35.390Z,14.10
2017-10-02T23:48:02.218Z,14.30
2017-10-02T23:50:29.458Z,14.40
2017-10-02T23:52:56.304Z,14.50
2017-10-02T23:55:23.176Z,14.30
2017-10-02T23:57:50.073Z,14.30
